createdAt,value
2022-10-11T00:00:30.917Z,68.86
2022-10-11T00:05:34.789Z,69.03
2022-10-11T00:10:38.238Z,68.46
2022-10-11T00:15:42.955Z,68.42
2022-10-11T00:20:46.485Z,69.05
2022-10-11T00:25:58.282Z,68.56
2022-10-11T00:31:05.287Z,68.95
2022-10-11T00:36:09.924Z,68.89
2022-10-11T00:41:14.607Z,68.84
2022-10-11T00:46:32.314Z,68.60
2022-10-11T00:51:42.618Z,68.48
2022-10-11T00:56:50.039Z,68.95
2022-10-11T01:01:56.082Z,68.38
2022-10-11T01:07:00.177Z,68.56
2022-10-11T01:12:20.052Z,68.68
2022-10-11T01:17:46.898Z,69.33
2022-10-11T01:23:52.078Z,69.25
2022-10-11T01:29:19.757Z,69.07
2022-10-11T01:34:42.822Z,68.60
2022-10-11T01:39:53.252Z,68.74
2022-10-11T01:44:58.171Z,68.72
2022-10-11T01:50:03.475Z,68.31
2022-10-11T01:55:20.210Z,68.82
2022-10-11T02:00:25.841Z,68.54
2022-10-11T02:05:37.164Z,68.34
2022-10-11T02:10:45.341Z,69.00
2022-10-11T02:15:50.804Z,68.87
2022-10-11T02:20:58.574Z,69.22
2022-10-11T02:26:04.702Z,68.96
2022-10-11T02:31:23.586Z,69.01
2022-10-11T02:36:51.238Z,68.92
2022-10-11T02:42:14.006Z,68.89
2022-10-11T02:47:32.862Z,69.39
2022-10-11T02:52:48.664Z,69.29
2022-10-11T02:58:03.747Z,69.38
2022-10-11T03:03:20.223Z,69.43
2022-10-11T03:08:35.506Z,69.10
2022-10-11T03:13:51.830Z,69.20
2022-10-11T03:19:07.606Z,69.26
2022-10-11T03:24:23.678Z,69.32
2022-10-11T03:29:40.026Z,69.31
2022-10-11T03:34:55.232Z,69.36
2022-10-11T03:40:14.179Z,69.54
2022-10-11T03:45:29.825Z,69.21
2022-10-11T03:50:44.938Z,69.27
2022-10-11T03:56:05.883Z,68.73
2022-10-11T04:01:22.963Z,68.74
2022-10-11T04:06:39.496Z,68.90
2022-10-11T04:11:56.041Z,69.21
2022-10-11T04:17:11.672Z,68.31
2022-10-11T04:22:27.638Z,68.72
2022-10-11T04:27:44.420Z,68.24
2022-10-11T04:33:00.785Z,68.36
2022-10-11T04:38:15.995Z,68.00
2022-10-11T04:43:32.706Z,67.67
2022-10-11T04:48:49.215Z,67.21
2022-10-11T04:54:05.743Z,67.20
2022-10-11T04:59:22.180Z,67.22
2022-10-11T05:04:37.945Z,66.87
2022-10-11T05:09:53.851Z,67.22
2022-10-11T05:15:11.491Z,67.11
2022-10-11T05:20:28.007Z,58.51
2022-10-11T05:25:43.975Z,59.97
2022-10-11T05:31:00.579Z,62.35
2022-10-11T05:36:16.968Z,63.52
2022-10-11T05:41:33.539Z,63.84
2022-10-11T05:46:51.418Z,60.96
2022-10-11T05:52:09.187Z,45.23
2022-10-11T05:57:24.981Z,33.83
2022-10-11T06:02:41.731Z,27.33
2022-10-11T06:07:59.064Z,22.24
2022-10-11T06:13:14.607Z,20.18
2022-10-11T06:18:47.784Z,17.62
2022-10-11T06:24:21.283Z,16.30
2022-10-11T06:29:56.595Z,15.54
2022-10-11T06:35:29.647Z,14.47
2022-10-11T06:40:58.505Z,13.02
2022-10-11T06:46:29.327Z,12.80
2022-10-11T06:52:14.049Z,12.34
2022-10-11T06:57:47.029Z,11.42
2022-10-11T07:06:03.175Z,10.39
2022-10-11T07:11:36.269Z,10.83
2022-10-11T07:17:10.127Z,10.76
2022-10-11T07:22:24.047Z,10.23
2022-10-11T07:27:57.560Z,10.06
2022-10-11T07:33:30.562Z,10.05
2022-10-11T07:39:05.961Z,10.17
2022-10-11T07:44:35.191Z,10.31
2022-10-11T07:50:09.777Z,10.12
2022-10-11T07:55:42.480Z,10.73
2022-10-11T08:01:20.689Z,11.14
2022-10-11T08:06:53.327Z,11.07
2022-10-11T08:12:23.050Z,11.02
2022-10-11T08:17:55.117Z,10.00
2022-10-11T08:23:33.778Z,10.05
2022-10-11T08:29:04.577Z,11.64
2022-10-11T08:34:35.045Z,12.90
2022-10-11T08:40:06.122Z,16.67
2022-10-11T08:45:43.965Z,19.84
2022-10-11T08:51:30.759Z,22.32
2022-10-11T08:56:59.949Z,23.95
2022-10-11T09:02:13.649Z,25.55
2022-10-11T09:07:25.491Z,27.59
2022-10-11T09:12:41.092Z,28.43
2022-10-11T09:17:57.766Z,29.17
2022-10-11T09:23:06.552Z,29.32
2022-10-11T09:28:24.158Z,31.28
2022-10-11T09:33:34.438Z,30.27
2022-10-11T09:38:44.609Z,30.99
2022-10-11T09:43:52.285Z,31.90
2022-10-11T09:48:57.639Z,32.80
2022-10-11T09:54:02.984Z,32.19
2022-10-11T09:59:25.038Z,32.83
2022-10-11T10:04:29.660Z,32.56
2022-10-11T10:09:33.834Z,33.18
2022-10-11T10:14:39.005Z,33.80
2022-10-11T10:19:48.400Z,33.78
2022-10-11T10:24:52.799Z,33.19
2022-10-11T10:30:20.127Z,33.49
2022-10-11T10:35:37.400Z,33.67
2022-10-11T10:40:48.387Z,33.78
2022-10-11T10:46:10.851Z,34.86
2022-10-11T10:51:25.332Z,34.35
2022-10-11T10:56:36.084Z,34.21
2022-10-11T11:01:52.289Z,33.38
2022-10-11T11:06:59.385Z,34.16
2022-10-11T11:12:16.567Z,33.55
2022-10-11T11:17:29.807Z,33.53
2022-10-11T11:22:48.640Z,33.03
2022-10-11T11:28:02.255Z,33.39
2022-10-11T11:33:13.175Z,33.28
2022-10-11T11:38:28.578Z,33.19
2022-10-11T11:43:36.355Z,32.68
2022-10-11T11:48:41.829Z,32.66
2022-10-11T11:53:55.485Z,32.86
2022-10-11T11:59:07.969Z,33.60
2022-10-11T12:04:23.415Z,33.65
2022-10-11T12:09:27.232Z,33.91
2022-10-11T12:14:37.835Z,34.46
2022-10-11T12:19:58.715Z,32.97
2022-10-11T12:25:23.378Z,33.11
2022-10-11T12:30:54.672Z,33.41
2022-10-11T12:36:07.326Z,33.29
2022-10-11T12:41:38.177Z,31.95
2022-10-11T12:46:58.217Z,32.77
2022-10-11T12:52:07.036Z,33.85
2022-10-11T12:58:04.432Z,35.02
2022-10-11T13:03:32.356Z,34.60
2022-10-11T13:08:41.947Z,34.29
2022-10-11T13:13:49.467Z,34.80
2022-10-11T13:18:58.603Z,35.00
2022-10-11T13:24:05.123Z,35.54
2022-10-11T13:29:17.940Z,35.25
2022-10-11T13:34:23.575Z,35.35
2022-10-11T13:39:31.854Z,35.86
2022-10-11T13:44:37.664Z,36.06
2022-10-11T13:49:41.197Z,36.08
2022-10-11T13:55:11.664Z,36.68
2022-10-11T14:00:27.454Z,36.72
2022-10-11T14:05:37.449Z,37.44
2022-10-11T14:10:46.822Z,37.69
2022-10-11T14:16:00.924Z,39.35
2022-10-11T14:21:35.793Z,39.08
2022-10-11T14:26:43.375Z,40.32
2022-10-11T14:31:47.047Z,41.18
2022-10-11T14:36:51.458Z,41.68
2022-10-11T14:41:56.261Z,42.36
2022-10-11T14:46:59.669Z,41.95
2022-10-11T14:52:04.716Z,43.80
2022-10-11T14:57:12.407Z,44.78
2022-10-11T15:02:15.793Z,45.83
2022-10-11T15:07:19.184Z,46.20
2022-10-11T15:12:23.947Z,47.12
2022-10-11T15:17:27.021Z,45.37
2022-10-11T15:22:30.522Z,47.68
2022-10-11T15:27:35.311Z,49.01
2022-10-11T15:32:38.826Z,49.03
2022-10-11T15:37:42.599Z,50.29
2022-10-11T15:42:50.847Z,50.30
2022-10-11T15:47:54.410Z,50.65
2022-10-11T15:52:57.861Z,51.09
2022-10-11T15:58:03.164Z,51.98
2022-10-11T16:03:06.494Z,52.25
2022-10-11T16:08:10.510Z,52.38
2022-10-11T16:13:15.350Z,52.65
2022-10-11T16:18:20.350Z,52.80
2022-10-11T16:23:24.211Z,53.02
2022-10-11T16:28:29.428Z,53.92
2022-10-11T16:33:32.835Z,54.43
2022-10-11T16:38:36.838Z,55.16
2022-10-11T16:43:41.648Z,54.79
2022-10-11T16:48:44.955Z,56.04
2022-10-11T16:53:48.378Z,56.36
2022-10-11T16:58:54.271Z,56.25
2022-10-11T17:03:58.349Z,56.90
2022-10-11T17:09:02.120Z,56.65
2022-10-11T17:14:07.810Z,56.41
2022-10-11T17:19:12.876Z,56.42
2022-10-11T17:24:16.590Z,55.28
2022-10-11T17:29:23.021Z,56.39
2022-10-11T17:34:26.687Z,57.05
2022-10-11T17:39:30.040Z,57.36
2022-10-11T17:44:36.375Z,57.04
2022-10-11T17:49:39.775Z,57.88
2022-10-11T17:54:43.086Z,57.55
2022-10-11T17:59:48.140Z,57.63
2022-10-11T18:04:51.497Z,57.95
2022-10-11T18:09:55.188Z,58.67
2022-10-11T18:15:00.017Z,59.05
2022-10-11T18:20:03.601Z,58.22
2022-10-11T18:25:07.553Z,59.28
2022-10-11T18:30:13.248Z,59.10
2022-10-11T18:35:16.683Z,59.30
2022-10-11T18:40:20.201Z,59.01
2022-10-11T18:45:24.971Z,59.42
2022-10-11T18:50:28.397Z,59.23
2022-10-11T18:55:31.787Z,59.41
2022-10-11T19:00:41.178Z,60.09
2022-10-11T19:05:45.159Z,60.38
2022-10-11T19:10:48.611Z,60.38
2022-10-11T19:15:53.356Z,60.68
2022-10-11T19:20:56.775Z,60.18
2022-10-11T19:26:00.187Z,60.67
2022-10-11T19:31:07.046Z,60.58
2022-10-11T19:36:14.807Z,60.91
2022-10-11T19:41:20.267Z,60.81
2022-10-11T19:46:50.539Z,61.17
2022-10-11T19:51:48.650Z,61.46
2022-10-11T19:56:52.645Z,61.16
2022-10-11T20:01:57.479Z,61.24
2022-10-11T20:07:00.885Z,60.98
2022-10-11T20:12:04.330Z,61.23
2022-10-11T20:17:09.145Z,61.02
2022-10-11T20:22:12.533Z,61.54
2022-10-11T20:27:15.946Z,60.92
2022-10-11T20:32:21.386Z,61.79
2022-10-11T20:37:26.252Z,61.40
2022-10-11T20:42:30.147Z,60.29
2022-10-11T20:47:35.808Z,61.85
2022-10-11T20:52:39.417Z,61.17
2022-10-11T20:57:42.773Z,61.19
2022-10-11T21:02:51.250Z,61.60
2022-10-11T21:07:54.595Z,61.66
2022-10-11T21:12:58.189Z,62.11
2022-10-11T21:18:02.867Z,62.09
2022-10-11T21:23:06.404Z,61.94
2022-10-11T21:28:09.765Z,62.06
2022-10-11T21:33:14.570Z,61.94
2022-10-11T21:38:18.174Z,62.28
2022-10-11T21:43:21.529Z,62.35
2022-10-11T21:48:26.308Z,62.25
2022-10-11T21:53:29.611Z,62.76
2022-10-11T21:58:33.004Z,62.71
2022-10-11T22:03:37.856Z,63.04
2022-10-11T22:08:41.463Z,62.24
2022-10-11T22:13:45.363Z,62.80
2022-10-11T22:18:50.273Z,62.56
2022-10-11T22:23:54.290Z,62.48
2022-10-11T22:28:58.140Z,62.29
2022-10-11T22:34:03.338Z,62.14
2022-10-11T22:39:08.197Z,62.05
2022-10-11T22:44:12.546Z,62.52
2022-10-11T22:49:17.301Z,62.53
2022-10-11T22:54:20.684Z,62.06
2022-10-11T22:59:24.054Z,62.51
2022-10-11T23:04:28.812Z,62.95
2022-10-11T23:09:32.204Z,62.52
2022-10-11T23:14:35.612Z,63.02
2022-10-11T23:19:40.410Z,63.41
2022-10-11T23:24:43.797Z,63.42
2022-10-11T23:29:47.216Z,62.91
2022-10-11T23:34:52.973Z,62.70
2022-10-11T23:39:56.310Z,62.64
2022-10-11T23:44:59.656Z,62.93
2022-10-11T23:50:04.587Z,62.73
2022-10-11T23:55:08.267Z,62.53
